Time;durP1;ratioP1;P1;durP2;ratioP2;P2;SDS_P1;SDS_P2;PMS_P1;PMS_P2;Temp;Humidity;BMP_temperature;BMP_pressure;BME280_temperature;BME280_humidity;BME280_pressure;Samples;Min_cycle;Max_cycle;Signal;HPM_P1;HPM_P2
2021/07/25 00:00:35;;;;;;;13.85;11.63;;;22.40;86.40;;;;;;5017107;28;20036;-66
2021/07/25 00:03:00;;;;;;;14.07;10.82;;;22.40;86.20;;;;;;5018837;28;20037;-66
2021/07/25 00:05:26;;;;;;;12.18;10.68;;;22.30;86.00;;;;;;5017220;28;20549;-66
2021/07/25 00:07:52;;;;;;;13.85;11.00;;;22.40;86.50;;;;;;5017594;28;20412;-66
2021/07/25 00:10:18;;;;;;;13.82;11.50;;;22.40;86.20;;;;;;5021326;28;20072;-66
2021/07/25 00:12:43;;;;;;;13.32;11.20;;;22.40;86.20;;;;;;5017513;28;20029;-66
2021/07/25 00:15:09;;;;;;;15.95;11.25;;;22.30;85.90;;;;;;5017167;28;20041;-66
2021/07/25 00:17:35;;;;;;;13.23;11.25;;;22.30;86.30;;;;;;5018465;28;20022;-67
2021/07/25 00:20:02;;;;;;;14.05;10.82;;;22.30;86.10;;;;;;5014385;28;20549;-67
2021/07/25 00:22:27;;;;;;;13.43;10.35;;;22.30;85.80;;;;;;5018583;28;20399;-66
2021/07/25 00:25:07;;;;;;;14.25;10.90;;;22.30;86.00;;;;;;5017240;28;20033;-66
2021/07/25 00:27:33;;;;;;;15.05;11.18;;;22.30;86.20;;;;;;5018946;28;20076;-66
2021/07/25 00:29:59;;;;;;;15.32;11.20;;;22.20;86.20;;;;;;5022072;28;20133;-66
2021/07/25 00:32:24;;;;;;;14.88;11.35;;;22.20;85.90;;;;;;5018106;28;20113;-66
2021/07/25 00:34:50;;;;;;;14.07;11.73;;;22.20;86.20;;;;;;5016328;28;20060;-66
2021/07/25 00:37:16;;;;;;;14.25;10.60;;;22.20;86.40;;;;;;5015590;28;20041;-66
2021/07/25 00:39:41;;;;;;;19.80;11.55;;;22.30;86.50;;;;;;5019092;28;20026;-66
2021/07/25 00:42:07;;;;;;;13.55;10.48;;;22.20;86.40;;;;;;5019943;28;20488;-66
2021/07/25 00:44:34;;;;;;;13.43;10.90;;;22.20;86.10;;;;;;5014782;28;20034;-66
2021/07/25 00:47:01;;;;;;;15.65;11.60;;;22.20;86.00;;;;;;5024129;28;20034;-67
2021/07/25 00:49:28;;;;;;;14.23;11.63;;;22.20;86.10;;;;;;5016288;28;20092;-66
2021/07/25 00:51:54;;;;;;;15.27;11.13;;;22.20;85.70;;;;;;5018739;28;20058;-66
2021/07/25 00:54:21;;;;;;;12.93;10.52;;;22.20;85.70;;;;;;5016384;28;20030;-66
2021/07/25 00:56:47;;;;;;;14.55;11.20;;;22.10;85.60;;;;;;5018253;28;20029;-66
2021/07/25 00:59:13;;;;;;;13.85;11.05;;;22.10;85.70;;;;;;5020269;28;20034;-66
2021/07/25 01:01:39;;;;;;;16.13;11.73;;;22.10;85.60;;;;;;5015531;28;20402;-66
2021/07/25 01:04:23;;;;;;;14.70;10.93;;;22.10;85.50;;;;;;5017102;28;20033;-66
2021/07/25 01:07:05;;;;;;;13.90;11.02;;;22.00;85.70;;;;;;5016590;28;20392;-67
2021/07/25 01:09:49;;;;;;;14.57;11.23;;;22.00;85.60;;;;;;5017457;28;20153;-66
2021/07/25 01:12:23;;;;;;;15.82;11.00;;;22.00;85.80;;;;;;4999209;28;20052;-66
2021/07/25 01:14:52;;;;;;;15.75;11.48;;;22.00;85.60;;;;;;5016438;28;20404;-66
2021/07/25 01:17:26;;;;;;;14.32;10.82;;;21.90;85.60;;;;;;5017994;28;20049;-66
2021/07/25 01:19:52;;;;;;;14.38;11.07;;;21.90;85.60;;;;;;5013410;28;20061;-66
2021/07/25 01:22:18;;;;;;;15.85;11.18;;;22.00;85.60;;;;;;5017820;28;20076;-66
2021/07/25 01:24:45;;;;;;;13.52;10.45;;;21.90;85.60;;;;;;5014074;28;20064;-66
2021/07/25 01:27:30;;;;;;;16.05;11.27;;;21.90;85.60;;;;;;5015292;28;20049;-66
2021/07/25 01:29:57;;;;;;;13.07;10.85;;;21.90;85.90;;;;;;5019759;28;20021;-66
2021/07/25 01:32:24;;;;;;;13.20;10.27;;;21.90;85.60;;;;;;5017237;28;20045;-66
2021/07/25 01:34:52;;;;;;;14.38;11.13;;;21.90;85.70;;;;;;5015838;28;20013;-66
2021/07/25 01:37:19;;;;;;;13.43;10.68;;;21.90;85.70;;;;;;5017728;28;20033;-66
2021/07/25 01:39:45;;;;;;;13.65;10.50;;;21.80;85.80;;;;;;5017132;28;20040;-66
2021/07/25 01:42:10;;;;;;;11.93;10.02;;;21.80;85.90;;;;;;5015332;28;20025;-66
2021/07/25 01:44:36;;;;;;;13.90;10.32;;;21.80;86.10;;;;;;5016468;28;20136;-66
2021/07/25 01:47:02;;;;;;;16.65;10.73;;;21.80;86.70;;;;;;5016760;28;20048;-67
2021/07/25 01:49:28;;;;;;;15.75;10.68;;;21.70;86.40;;;;;;5018919;28;20080;-66
2021/07/25 01:51:53;;;;;;;13.38;11.02;;;21.70;86.60;;;;;;5014860;28;20491;-67
2021/07/25 01:54:19;;;;;;;13.45;10.52;;;21.70;86.80;;;;;;5017074;28;20034;-66
2021/07/25 01:56:45;;;;;;;17.35;11.57;;;21.70;86.80;;;;;;5015321;28;20026;-66
2021/07/25 01:59:10;;;;;;;15.15;10.98;;;21.60;86.90;;;;;;5020164;28;20029;-66
2021/07/25 02:01:36;;;;;;;16.27;11.05;;;21.60;86.90;;;;;;5015578;28;20033;-66
2021/07/25 02:04:02;;;;;;;15.43;10.57;;;21.60;87.00;;;;;;5016290;28;20042;-67
2021/07/25 02:06:27;;;;;;;14.73;11.35;;;21.60;87.10;;;;;;5014973;28;20088;-66
2021/07/25 02:08:53;;;;;;;13.68;10.15;;;21.50;87.30;;;;;;5015092;28;20083;-66
2021/07/25 02:11:19;;;;;;;15.82;10.98;;;21.50;87.10;;;;;;5017894;28;20120;-66
2021/07/25 02:13:45;;;;;;;14.80;10.10;;;21.50;87.20;;;;;;5016289;28;20026;-66
2021/07/25 02:16:10;;;;;;;15.27;11.25;;;21.50;87.10;;;;;;5016460;28;20072;-66
2021/07/25 02:18:36;;;;;;;15.15;11.05;;;21.50;87.40;;;;;;5013972;28;20456;-66
2021/07/25 02:21:02;;;;;;;13.55;11.20;;;21.50;87.60;;;;;;5012835;28;20112;-67
2021/07/25 02:23:28;;;;;;;16.52;11.68;;;21.50;87.70;;;;;;5017070;28;20092;-66
2021/07/25 02:25:53;;;;;;;14.10;11.05;;;21.50;87.90;;;;;;5015236;28;20101;-67
2021/07/25 02:28:19;;;;;;;18.00;10.98;;;21.40;87.90;;;;;;5014419;28;20037;-66
2021/07/25 02:30:44;;;;;;;15.25;11.80;;;21.40;88.10;;;;;;5018146;28;20104;-66
2021/07/25 02:33:10;;;;;;;13.65;10.70;;;21.40;88.20;;;;;;5017371;28;20026;-66
2021/07/25 02:35:37;;;;;;;16.27;11.20;;;21.40;88.10;;;;;;5015510;28;20037;-66
2021/07/25 02:38:02;;;;;;;15.23;10.93;;;21.40;88.20;;;;;;5018223;28;20084;-66
2021/07/25 02:40:28;;;;;;;14.93;11.25;;;21.50;88.10;;;;;;5017677;28;20479;-67
2021/07/25 02:42:54;;;;;;;15.35;11.00;;;21.50;88.20;;;;;;5014161;28;20048;-66
2021/07/25 02:45:20;;;;;;;13.45;10.57;;;21.50;88.50;;;;;;5012625;28;20116;-66
2021/07/25 02:47:45;;;;;;;23.65;12.48;;;21.40;88.30;;;;;;5014705;28;20041;-67
2021/07/25 02:50:11;;;;;;;13.88;10.73;;;21.50;88.40;;;;;;5015392;28;20064;-66
2021/07/25 02:52:37;;;;;;;13.00;11.13;;;21.50;88.40;;;;;;5015975;28;20360;-66
2021/07/25 02:55:04;;;;;;;15.55;11.93;;;21.40;88.70;;;;;;5014027;28;20025;-66
2021/07/25 02:57:30;;;;;;;15.52;11.93;;;21.40;88.70;;;;;;5013654;28;20026;-66
2021/07/25 02:59:55;;;;;;;18.38;13.73;;;21.40;88.60;;;;;;5020262;28;20041;-67
2021/07/25 03:02:21;;;;;;;15.25;12.10;;;21.40;88.90;;;;;;5017700;28;20518;-66
2021/07/25 03:04:47;;;;;;;16.38;12.77;;;21.40;88.80;;;;;;5020670;28;20084;-67
2021/07/25 03:07:14;;;;;;;19.15;13.23;;;21.40;89.40;;;;;;5018297;28;20041;-66
2021/07/25 03:09:40;;;;;;;18.55;13.30;;;21.30;89.70;;;;;;5022137;28;20056;-66
2021/07/25 03:12:06;;;;;;;18.95;12.95;;;21.30;89.80;;;;;;5021370;28;20538;-66
2021/07/25 03:14:32;;;;;;;17.40;13.02;;;21.30;89.90;;;;;;5018406;28;20037;-66
2021/07/25 03:16:57;;;;;;;14.88;12.20;;;21.30;89.90;;;;;;5019961;28;20384;-66
2021/07/25 03:19:23;;;;;;;22.45;14.00;;;21.30;89.90;;;;;;5014232;28;20108;-66
2021/07/25 03:21:49;;;;;;;18.83;14.43;;;21.30;90.10;;;;;;5017992;28;20061;-66
2021/07/25 03:24:14;;;;;;;17.13;13.20;;;21.30;90.10;;;;;;5021243;28;20733;-67
2021/07/25 03:26:40;;;;;;;17.98;13.10;;;21.20;90.10;;;;;;5018275;28;20096;-66
2021/07/25 03:29:06;;;;;;;17.45;12.13;;;21.20;90.10;;;;;;5019086;28;20029;-67
2021/07/25 03:31:31;;;;;;;19.55;14.30;;;21.30;90.10;;;;;;5020227;28;20467;-66
2021/07/25 03:33:59;;;;;;;18.00;14.20;;;21.30;90.30;;;;;;5021425;28;20018;-67
2021/07/25 03:36:26;;;;;;;18.10;13.32;;;21.20;90.30;;;;;;5017434;28;20040;-66
2021/07/25 03:38:51;;;;;;;18.65;14.88;;;21.20;90.20;;;;;;5018450;28;20041;-66
2021/07/25 03:41:17;;;;;;;17.83;13.10;;;21.20;90.30;;;;;;5020175;28;20066;-66
2021/07/25 03:43:43;;;;;;;15.63;12.85;;;21.20;90.30;;;;;;5014231;28;20034;-66
2021/07/25 03:46:09;;;;;;;18.65;13.75;;;21.20;90.30;;;;;;5015048;28;20025;-66
2021/07/25 03:48:36;;;;;;;20.27;14.52;;;21.20;90.40;;;;;;5020694;28;20049;-67
2021/07/25 03:51:02;;;;;;;19.08;15.07;;;21.20;90.40;;;;;;5018025;28;20034;-66
2021/07/25 03:53:27;;;;;;;19.58;15.32;;;21.20;90.50;;;;;;5021957;28;20030;-66
2021/07/25 03:55:53;;;;;;;19.75;15.65;;;21.20;90.70;;;;;;5013308;28;20027;-66
2021/07/25 03:58:19;;;;;;;21.42;16.38;;;21.20;90.90;;;;;;5019054;28;20109;-66
2021/07/25 04:00:45;;;;;;;20.60;15.75;;;21.20;91.00;;;;;;5019791;28;20025;-66
2021/07/25 04:03:10;;;;;;;20.75;15.55;;;21.10;91.10;;;;;;5019240;28;20033;-66
2021/07/25 04:05:36;;;;;;;20.52;15.88;;;21.00;91.10;;;;;;5015551;28;20033;-66
2021/07/25 04:08:09;;;;;;;22.83;16.45;;;21.10;91.10;;;;;;5017831;28;20033;-66
2021/07/25 04:10:42;;;;;;;25.73;18.05;;;21.10;91.30;;;;;;5021547;28;20033;-66
2021/07/25 04:13:09;;;;;;;21.77;17.45;;;21.00;91.70;;;;;;5017079;28;20487;-66
2021/07/25 04:15:43;;;;;;;21.98;16.98;;;21.00;91.50;;;;;;5017684;28;20034;-66
2021/07/25 04:18:09;;;;;;;24.38;17.58;;;21.00;91.50;;;;;;5015094;28;20134;-67
2021/07/25 04:20:35;;;;;;;25.23;17.85;;;21.00;91.50;;;;;;5016480;28;20524;-67
2021/07/25 04:23:02;;;;;;;24.60;18.92;;;21.00;91.50;;;;;;5020075;28;20388;-68
2021/07/25 04:25:29;;;;;;;30.50;22.58;;;21.00;91.70;;;;;;5013069;28;20100;-67
2021/07/25 04:27:56;;;;;;;28.20;20.40;;;21.00;91.90;;;;;;5017489;28;20365;-67
2021/07/25 04:30:23;;;;;;;29.00;20.77;;;21.00;91.90;;;;;;5018415;28;20095;-67
2021/07/25 04:32:48;;;;;;;34.00;25.02;;;21.00;91.90;;;;;;5016191;28;20606;-68
2021/07/25 04:35:17;;;;;;;31.75;23.45;;;21.00;92.00;;;;;;5017558;28;20116;-68
2021/07/25 04:37:48;;;;;;;35.20;26.45;;;20.90;92.00;;;;;;5017835;28;20030;-68
2021/07/25 04:40:16;;;;;;;32.40;24.80;;;20.90;92.10;;;;;;5018574;28;20025;-68
2021/07/25 04:42:46;;;;;;;35.10;25.52;;;20.90;92.20;;;;;;5016084;28;20029;-68
2021/07/25 04:45:19;;;;;;;30.40;22.00;;;20.80;92.40;;;;;;5017430;28;20038;-68
2021/07/25 04:48:04;;;;;;;33.63;25.45;;;20.80;92.20;;;;;;5016884;28;20105;-67
2021/07/25 04:50:36;;;;;;;34.08;25.30;;;20.80;92.30;;;;;;5017630;28;20042;-68
2021/07/25 04:53:02;;;;;;;30.92;23.40;;;20.80;92.10;;;;;;5021137;28;20124;-68
2021/07/25 04:55:33;;;;;;;29.15;21.90;;;20.90;92.10;;;;;;5018850;28;20030;-68
2021/07/25 04:58:04;;;;;;;30.55;23.23;;;20.90;92.00;;;;;;5019090;28;20869;-68
2021/07/25 05:00:31;;;;;;;31.98;23.92;;;20.90;92.10;;;;;;5019568;28;20033;-68
2021/07/25 05:03:02;;;;;;;29.27;22.27;;;21.00;92.10;;;;;;5017121;28;20495;-68
2021/07/25 05:05:28;;;;;;;28.55;21.73;;;21.00;91.90;;;;;;5013433;28;20539;-68
2021/07/25 05:07:59;;;;;;;33.03;25.35;;;21.00;92.00;;;;;;5015529;28;20030;-68
2021/07/25 05:10:25;;;;;;;27.73;20.58;;;21.00;92.00;;;;;;5021825;28;20435;-68
2021/07/25 05:13:24;;;;;;;30.27;22.88;;;21.10;91.80;;;;;;5016179;28;20480;-68
2021/07/25 05:15:50;;;;;;;29.55;23.05;;;21.10;91.80;;;;;;5004160;28;20103;-68
2021/07/25 05:18:24;;;;;;;29.63;22.08;;;21.20;91.90;;;;;;5013605;28;20503;-68
2021/07/25 05:21:07;;;;;;;27.10;21.48;;;21.20;91.80;;;;;;5013747;28;20041;-68
2021/07/25 05:23:42;;;;;;;30.10;22.25;;;21.30;91.70;;;;;;5018443;28;20030;-68
2021/07/25 05:26:10;;;;;;;28.40;21.63;;;21.30;91.50;;;;;;5015169;28;20088;-68
2021/07/25 05:28:37;;;;;;;27.77;21.02;;;21.30;91.50;;;;;;5017051;28;20458;-66
2021/07/25 05:31:06;;;;;;;32.85;24.27;;;21.30;91.50;;;;;;5016684;28;20837;-66
2021/07/25 05:33:31;;;;;;;28.50;21.88;;;21.40;91.30;;;;;;5018381;28;20506;-66
2021/07/25 05:35:57;;;;;;;30.25;21.95;;;21.30;91.20;;;;;;5015670;28;20038;-66
2021/07/25 05:38:23;;;;;;;29.23;21.90;;;21.20;91.30;;;;;;5014906;28;20032;-68
2021/07/25 05:40:49;;;;;;;25.98;20.38;;;21.20;91.30;;;;;;5017152;28;20067;-69
2021/07/25 05:43:14;;;;;;;26.63;21.20;;;21.20;91.30;;;;;;5016114;28;20444;-67
2021/07/25 05:45:40;;;;;;;30.98;22.42;;;21.20;91.40;;;;;;5015868;28;20137;-68
2021/07/25 05:48:06;;;;;;;29.50;21.85;;;21.30;91.20;;;;;;5015427;28;20038;-66
2021/07/25 05:50:32;;;;;;;28.65;21.77;;;21.30;91.20;;;;;;5017677;28;20029;-68
2021/07/25 05:52:59;;;;;;;27.90;19.52;;;21.30;90.90;;;;;;5016177;28;20033;-66
2021/07/25 05:55:27;;;;;;;26.60;19.65;;;21.30;90.90;;;;;;5012466;28;20484;-66
2021/07/25 05:57:53;;;;;;;23.25;19.33;;;21.20;90.90;;;;;;5015008;28;20442;-68
2021/07/25 06:00:19;;;;;;;26.08;19.63;;;21.20;91.00;;;;;;5018360;28;20112;-67
2021/07/25 06:03:01;;;;;;;24.88;20.10;;;21.20;91.00;;;;;;5015804;28;20030;-69
2021/07/25 06:05:33;;;;;;;20.58;17.65;;;21.20;90.90;;;;;;5013747;28;20440;-67
2021/07/25 06:08:01;;;;;;;24.77;18.95;;;21.20;91.00;;;;;;5013717;28;20068;-68
2021/07/25 06:10:29;;;;;;;25.15;19.27;;;21.30;91.00;;;;;;5018787;28;20030;-68
2021/07/25 06:12:59;;;;;;;24.70;17.35;;;21.30;90.90;;;;;;5017074;28;20057;-68
2021/07/25 06:15:26;;;;;;;22.23;18.17;;;21.30;90.80;;;;;;5015708;28;20018;-68
2021/07/25 06:17:52;;;;;;;24.63;19.55;;;21.30;90.70;;;;;;5013192;28;20022;-66
2021/07/25 06:20:18;;;;;;;19.85;15.75;;;21.30;90.60;;;;;;5012966;28;20399;-66
2021/07/25 06:22:50;;;;;;;24.95;17.90;;;21.40;90.70;;;;;;5017697;28;20163;-66
2021/07/25 06:25:20;;;;;;;21.70;17.42;;;21.40;90.50;;;;;;5015552;28;20041;-66
2021/07/25 06:27:51;;;;;;;21.23;16.95;;;21.40;90.50;;;;;;5015134;28;20426;-67
2021/07/25 06:30:17;;;;;;;18.50;15.25;;;21.50;90.40;;;;;;5018326;28;20038;-67
2021/07/25 06:33:03;;;;;;;19.52;14.80;;;21.60;90.20;;;;;;5016060;28;20036;-67
2021/07/25 06:35:30;;;;;;;20.52;16.60;;;21.60;90.10;;;;;;5016569;28;20032;-67
2021/07/25 06:38:00;;;;;;;20.80;16.05;;;21.70;90.10;;;;;;5015035;28;20025;-67
2021/07/25 06:40:27;;;;;;;20.50;17.02;;;21.70;90.20;;;;;;5016419;28;20099;-68
2021/07/25 06:42:55;;;;;;;21.55;15.75;;;21.70;90.10;;;;;;5015253;28;20040;-69
2021/07/25 06:45:21;;;;;;;20.60;15.95;;;21.70;90.10;;;;;;5011346;28;20037;-69
2021/07/25 06:47:48;;;;;;;18.88;15.13;;;21.80;89.80;;;;;;5014951;28;20064;-69
2021/07/25 06:50:17;;;;;;;21.15;15.85;;;21.80;89.60;;;;;;5013744;28;20071;-67
2021/07/25 06:52:43;;;;;;;19.40;15.18;;;21.80;89.00;;;;;;5017476;28;20030;-67
2021/07/25 06:55:09;;;;;;;18.55;15.45;;;21.90;89.20;;;;;;5011722;28;20047;-67
2021/07/25 06:57:35;;;;;;;25.77;16.98;;;22.00;88.80;;;;;;5015070;28;20109;-67
2021/07/25 07:00:01;;;;;;;18.50;15.18;;;22.00;89.00;;;;;;5016448;28;20551;-67
2021/07/25 07:02:27;;;;;;;22.35;16.48;;;22.00;89.10;;;;;;5020007;28;20396;-68
2021/07/25 07:04:53;;;;;;;17.98;14.00;;;22.00;88.30;;;;;;5013882;28;20030;-67
2021/07/25 07:07:19;;;;;;;16.67;13.43;;;22.10;88.10;;;;;;5015421;28;20084;-68
2021/07/25 07:09:44;;;;;;;17.08;13.90;;;22.10;88.40;;;;;;5012697;28;20033;-68
2021/07/25 07:12:10;;;;;;;17.63;14.60;;;22.20;88.20;;;;;;5014973;28;20034;-68
2021/07/25 07:14:36;;;;;;;17.85;14.95;;;22.30;88.30;;;;;;5014247;28;20050;-67
2021/07/25 07:17:02;;;;;;;17.77;14.00;;;22.30;88.20;;;;;;5013926;28;20109;-68
2021/07/25 07:19:27;;;;;;;18.45;15.35;;;22.30;87.90;;;;;;5007142;28;20450;-68
2021/07/25 07:21:53;;;;;;;21.95;15.80;;;22.40;87.90;;;;;;5013043;28;20054;-67
2021/07/25 07:24:19;;;;;;;27.00;19.08;;;22.40;87.90;;;;;;5008940;28;20064;-68
2021/07/25 07:26:44;;;;;;;25.42;16.38;;;22.40;86.90;;;;;;5015061;28;20025;-66
2021/07/25 07:29:10;;;;;;;23.15;16.77;;;22.50;86.80;;;;;;5014303;28;20492;-65
2021/07/25 07:31:35;;;;;;;17.55;14.40;;;22.40;86.40;;;;;;5015931;28;20060;-65
2021/07/25 07:34:01;;;;;;;19.10;15.20;;;22.40;86.70;;;;;;5013419;28;20640;-65
2021/07/25 07:36:27;;;;;;;17.40;14.02;;;22.40;87.20;;;;;;5014580;28;20034;-65
2021/07/25 07:38:52;;;;;;;20.35;15.85;;;22.40;87.30;;;;;;5015482;28;20539;-65
2021/07/25 07:41:18;;;;;;;18.67;13.63;;;22.50;87.60;;;;;;5016518;28;20507;-65
2021/07/25 07:43:44;;;;;;;19.70;15.43;;;22.60;87.80;;;;;;5015886;28;20049;-64
2021/07/25 07:46:09;;;;;;;19.23;15.48;;;22.60;87.30;;;;;;5018318;28;20037;-65
2021/07/25 07:48:35;;;;;;;20.23;14.32;;;22.70;87.30;;;;;;5015751;28;20033;-65
2021/07/25 07:51:01;;;;;;;19.02;14.95;;;22.70;84.90;;;;;;5010219;28;20092;-65
2021/07/25 07:53:26;;;;;;;17.38;14.30;;;22.70;85.70;;;;;;5014514;28;20052;-65
2021/07/25 07:55:52;;;;;;;19.23;14.43;;;22.80;86.20;;;;;;5018832;28;20037;-65
2021/07/25 07:58:17;;;;;;;15.25;12.90;;;22.80;86.30;;;;;;5017650;28;20491;-65
2021/07/25 08:00:44;;;;;;;16.13;13.50;;;22.80;86.10;;;;;;5017533;28;20053;-66
2021/07/25 08:03:10;;;;;;;15.25;12.68;;;23.00;86.00;;;;;;5013766;28;20049;-64
2021/07/25 08:05:36;;;;;;;17.05;13.55;;;23.00;85.50;;;;;;5014040;28;20026;-67
2021/07/25 08:08:02;;;;;;;14.63;12.10;;;23.10;85.30;;;;;;5017146;28;20029;-65
2021/07/25 08:10:27;;;;;;;23.67;14.45;;;23.10;85.30;;;;;;5020288;28;20030;-65
2021/07/25 08:12:53;;;;;;;17.77;14.65;;;23.20;85.10;;;;;;5018898;28;20052;-66
2021/07/25 08:15:19;;;;;;;14.68;12.50;;;23.20;85.00;;;;;;5019241;28;20495;-65
2021/07/25 08:17:45;;;;;;;18.17;13.70;;;23.20;85.20;;;;;;5017602;28;21879;-66
2021/07/25 08:20:11;;;;;;;15.45;12.85;;;23.30;84.00;;;;;;5015015;28;20499;-65
2021/07/25 08:22:37;;;;;;;18.17;12.80;;;23.40;84.40;;;;;;5018978;28;20034;-65
2021/07/25 08:25:06;;;;;;;15.90;12.55;;;23.40;84.30;;;;;;5017950;28;20049;-66
2021/07/25 08:27:32;;;;;;;14.57;12.93;;;23.40;84.40;;;;;;5019065;28;20030;-66
2021/07/25 08:29:57;;;;;;;14.18;11.93;;;23.50;84.30;;;;;;5019485;28;20099;-67
2021/07/25 08:32:23;;;;;;;18.85;12.32;;;23.50;84.30;;;;;;5019351;28;20072;-66
2021/07/25 08:34:49;;;;;;;14.98;12.35;;;23.60;84.00;;;;;;5017409;28;20073;-65
2021/07/25 08:37:15;;;;;;;17.13;13.82;;;23.60;83.80;;;;;;5019632;28;20033;-65
2021/07/25 08:39:40;;;;;;;15.13;12.82;;;23.60;83.10;;;;;;5017173;28;20022;-65
2021/07/25 08:42:12;;;;;;;17.00;13.48;;;23.70;83.30;;;;;;5017570;28;20381;-65
2021/07/25 08:44:51;;;;;;;14.45;12.32;;;23.70;81.80;;;;;;5014663;28;20041;-66
2021/07/25 08:47:34;;;;;;;16.60;12.43;;;23.60;82.10;;;;;;5018477;28;20065;-65
2021/07/25 08:50:02;;;;;;;15.63;11.98;;;23.70;82.50;;;;;;5013562;28;20030;-65
2021/07/25 08:52:38;;;;;;;15.45;12.25;;;23.80;82.40;;;;;;5017494;28;20499;-65
2021/07/25 08:55:10;;;;;;;14.82;12.85;;;23.80;82.80;;;;;;5016618;28;20494;-66
2021/07/25 08:57:39;;;;;;;15.77;12.43;;;23.90;82.00;;;;;;5019493;28;20036;-65
2021/07/25 09:00:07;;;;;;;15.65;12.32;;;23.90;81.90;;;;;;5021132;28;20029;-65
2021/07/25 09:02:33;;;;;;;14.65;11.98;;;23.90;82.00;;;;;;5017881;28;20034;-65
2021/07/25 09:05:00;;;;;;;15.20;12.25;;;24.00;82.00;;;;;;5018101;28;20021;-65
2021/07/25 09:07:28;;;;;;;18.27;14.25;;;24.00;81.90;;;;;;5014986;28;20057;-65
2021/07/25 09:10:04;;;;;;;15.82;12.48;;;24.10;81.10;;;;;;5012931;28;20034;-67
2021/07/25 09:12:31;;;;;;;14.65;12.00;;;24.10;81.00;;;;;;5015551;28;20028;-65
2021/07/25 09:15:04;;;;;;;13.70;11.63;;;24.20;80.80;;;;;;5016907;28;20032;-66
2021/07/25 09:17:29;;;;;;;13.32;10.90;;;24.20;80.10;;;;;;5017306;28;20084;-66
2021/07/25 09:20:14;;;;;;;13.70;11.10;;;24.30;80.70;;;;;;5010991;28;20025;-66
2021/07/25 09:22:48;;;;;;;13.75;12.05;;;24.30;80.50;;;;;;5013302;28;20037;-66
2021/07/25 09:25:20;;;;;;;14.90;12.52;;;24.40;80.40;;;;;;5008714;28;20042;-66
2021/07/25 09:28:06;;;;;;;13.63;11.95;;;24.40;80.50;;;;;;5009850;28;20042;-66
2021/07/25 09:30:33;;;;;;;15.65;12.77;;;24.50;80.70;;;;;;5010987;28;20030;-65
2021/07/25 09:33:00;;;;;;;15.10;11.85;;;24.50;80.10;;;;;;5010497;28;20034;-66
2021/07/25 09:35:36;;;;;;;17.10;12.98;;;24.60;80.60;;;;;;5012609;28;20060;-65
2021/07/25 09:38:04;;;;;;;13.80;11.70;;;24.60;78.40;;;;;;5012215;28;20038;-65
2021/07/25 09:40:33;;;;;;;16.45;12.15;;;24.60;79.30;;;;;;5012825;28;20033;-65
2021/07/25 09:43:21;;;;;;;14.50;11.27;;;24.70;79.90;;;;;;5016793;28;20041;-66
2021/07/25 09:45:57;;;;;;;14.32;11.88;;;24.70;78.70;;;;;;5017316;28;20531;-66
2021/07/25 09:48:33;;;;;;;15.80;12.38;;;24.80;78.50;;;;;;5016282;28;21305;-66
2021/07/25 09:51:01;;;;;;;16.83;13.13;;;24.80;79.00;;;;;;5008893;28;20041;-66
2021/07/25 09:53:44;;;;;;;12.68;11.18;;;24.90;79.30;;;;;;5010159;28;20061;-66
2021/07/25 09:56:26;;;;;;;15.05;10.82;;;25.00;78.10;;;;;;5011600;28;20034;-66
2021/07/25 09:58:54;;;;;;;12.30;10.73;;;25.00;77.90;;;;;;5013594;28;20026;-67
2021/07/25 10:01:42;;;;;;;11.07;9.85;;;25.00;77.70;;;;;;5017865;28;20030;-66
2021/07/25 10:04:18;;;;;;;11.43;10.13;;;25.10;78.00;;;;;;5015550;28;20033;-65
2021/07/25 10:06:54;;;;;;;12.80;10.73;;;25.10;77.90;;;;;;5018116;28;20488;-65
2021/07/25 10:09:22;;;;;;;12.30;10.50;;;25.10;77.90;;;;;;5015029;28;20400;-65
2021/07/25 10:11:58;;;;;;;12.38;10.77;;;25.20;77.50;;;;;;5015094;28;20439;-65
2021/07/25 10:14:25;;;;;;;12.05;10.45;;;25.30;76.30;;;;;;5016466;28;20140;-65
2021/07/25 10:16:56;;;;;;;11.65;10.45;;;25.30;75.50;;;;;;5016064;28;20030;-65
2021/07/25 10:19:53;;;;;;;11.70;9.63;;;25.40;75.60;;;;;;5012843;28;20083;-64
2021/07/25 10:22:21;;;;;;;11.38;9.50;;;25.50;76.00;;;;;;5012438;28;20052;-65
2021/07/25 10:24:49;;;;;;;11.00;8.98;;;25.60;76.50;;;;;;5006261;28;20033;-65
2021/07/25 10:27:17;;;;;;;12.80;9.15;;;25.60;76.50;;;;;;5011499;28;20042;-65
2021/07/25 10:29:44;;;;;;;12.00;10.60;;;25.60;75.90;;;;;;5016662;28;20029;-65
2021/07/25 10:32:10;;;;;;;11.70;10.50;;;25.70;75.20;;;;;;5015188;28;20104;-65
2021/07/25 10:34:38;;;;;;;12.57;10.38;;;25.70;75.50;;;;;;5014622;28;20383;-65
2021/07/25 10:37:04;;;;;;;11.50;10.13;;;25.80;75.90;;;;;;5012820;28;20045;-65
2021/07/25 10:39:31;;;;;;;12.57;11.13;;;25.80;74.90;;;;;;5012352;28;20065;-66
2021/07/25 10:42:04;;;;;;;11.13;10.02;;;25.90;73.70;;;;;;5014713;28;20086;-65
2021/07/25 10:44:30;;;;;;;11.82;9.55;;;26.00;74.40;;;;;;5012456;28;20037;-65
2021/07/25 10:47:33;;;;;;;11.20;9.85;;;26.10;74.30;;;;;;5014721;28;20030;-65
2021/07/25 10:50:16;;;;;;;11.25;9.98;;;26.10;73.80;;;;;;5012087;28;20041;-67
2021/07/25 10:52:59;;;;;;;10.80;9.32;;;26.20;74.40;;;;;;5015694;28;20037;-66
2021/07/25 10:55:39;;;;;;;12.23;10.70;;;26.30;74.00;;;;;;5013085;28;20034;-66
2021/07/25 10:58:06;;;;;;;13.43;10.43;;;26.30;73.60;;;;;;5008813;28;20133;-65
2021/07/25 11:00:42;;;;;;;12.05;10.23;;;26.40;73.80;;;;;;5015962;28;20115;-65
2021/07/25 11:03:08;;;;;;;12.77;10.05;;;26.40;73.40;;;;;;5015214;28;20507;-65
2021/07/25 11:06:00;;;;;;;11.00;9.85;;;26.40;73.20;;;;;;5014013;28;20033;-67
2021/07/25 11:08:43;;;;;;;13.27;9.85;;;26.40;71.90;;;;;;5015979;28;20032;-65
2021/07/25 11:11:29;;;;;;;11.25;9.15;;;26.50;72.10;;;;;;5016707;28;20064;-67
2021/07/25 11:13:55;;;;;;;10.43;9.32;;;26.40;68.80;;;;;;5013267;28;20037;-71
2021/07/25 11:16:30;;;;;;;11.55;9.57;;;26.50;70.30;;;;;;5016278;28;20039;-66
2021/07/25 11:18:57;;;;;;;10.48;9.38;;;26.60;71.00;;;;;;5011199;28;20030;-66
2021/07/25 11:21:34;;;;;;;11.15;10.02;;;26.70;70.20;;;;;;5017360;28;20040;-66
2021/07/25 11:23:59;;;;;;;12.02;10.13;;;26.90;71.10;;;;;;5015710;28;20041;-66
2021/07/25 11:26:34;;;;;;;10.30;9.27;;;27.00;71.00;;;;;;5016534;28;20026;-65
2021/07/25 11:29:06;;;;;;;12.10;9.38;;;27.20;70.80;;;;;;5033965;28;20029;-65
2021/07/25 11:31:41;;;;;;;9.45;8.43;;;27.30;69.50;;;;;;5014609;28;20112;-65
2021/07/25 11:34:08;;;;;;;10.80;9.63;;;27.40;68.00;;;;;;5016942;28;20414;-65
2021/07/25 11:36:33;;;;;;;9.93;8.73;;;27.40;68.30;;;;;;5021062;28;20041;-66
2021/07/25 11:39:01;;;;;;;10.52;9.43;;;27.50;68.70;;;;;;5019789;28;20038;-65
2021/07/25 11:41:32;;;;;;;9.38;8.45;;;27.60;68.60;;;;;;5019273;28;20136;-66
2021/07/25 11:44:02;;;;;;;10.80;9.35;;;27.60;68.20;;;;;;5018032;28;20092;-65
2021/07/25 11:46:35;;;;;;;11.02;9.10;;;27.70;66.70;;;;;;5018535;28;20051;-66
2021/07/25 11:49:22;;;;;;;10.05;8.88;;;27.90;67.90;;;;;;5020171;28;20064;-65
2021/07/25 11:51:58;;;;;;;9.88;8.63;;;28.20;67.00;;;;;;5018139;28;20139;-66
2021/07/25 11:54:35;;;;;;;9.90;8.68;;;28.40;65.20;;;;;;5019945;28;20088;-67
2021/07/25 11:57:00;;;;;;;10.50;9.23;;;28.80;66.20;;;;;;5019146;28;20427;-67
2021/07/25 11:59:27;;;;;;;11.65;8.73;;;29.00;64.00;;;;;;5021921;28;20034;-66
2021/07/25 12:01:53;;;;;;;9.70;8.70;;;29.40;64.50;;;;;;5018359;28;20571;-66
2021/07/25 12:04:31;;;;;;;9.20;8.10;;;29.90;61.40;;;;;;5020698;28;20118;-66
2021/07/25 12:07:11;;;;;;;9.00;8.10;;;30.50;60.00;;;;;;5018594;28;20091;-67
2021/07/25 12:09:38;;;;;;;9.30;7.90;;;31.60;56.80;;;;;;5019932;28;20294;-66
2021/07/25 12:12:08;;;;;;;8.90;8.00;;;32.90;52.70;;;;;;5014529;28;20037;-66
2021/07/25 12:14:36;;;;;;;8.90;8.10;;;34.20;49.90;;;;;;5017296;28;20109;-66
2021/07/25 12:17:02;;;;;;;10.23;8.38;;;35.30;47.70;;;;;;5018074;28;20076;-66
2021/07/25 12:19:34;;;;;;;9.57;8.57;;;35.90;44.00;;;;;;5016389;28;20034;-66
2021/07/25 12:22:12;;;;;;;10.95;8.52;;;36.10;44.20;;;;;;5019004;28;20036;-66
2021/07/25 12:24:43;;;;;;;8.88;8.07;;;35.40;44.90;;;;;;5017237;28;20404;-65
2021/07/25 12:27:25;;;;;;;8.50;7.60;;;34.10;46.50;;;;;;5017018;28;20026;-65
2021/07/25 12:29:51;;;;;;;8.93;8.02;;;33.20;47.50;;;;;;5016785;28;20037;-66
2021/07/25 12:32:29;;;;;;;9.85;8.90;;;32.50;48.50;;;;;;5021342;28;20049;-66
2021/07/25 12:35:09;;;;;;;9.52;8.63;;;32.00;50.40;;;;;;5016521;28;20025;-65
2021/07/25 12:37:51;;;;;;;9.45;8.55;;;31.20;51.40;;;;;;5015166;28;20571;-65